Banning, CA (92220)

1:24 AM PDT on June 25, 2017 (GMT -0700)
Mountain Air | | Change Station
Active Advisory: Excessive Heat Warning

Elev 2579 ft 33.93 °N, 116.88 °W | Updated 27 seconds ago

Clear
Clear
78.8 °F
Feels Like 79 °F
N
6.9
Wind Variable Wind from NW
Gusts 6.9 mph

Today
High -- | Low -- °F
--% Chance of Precip.
Yesterday
High -- | Low -- °F
Precip. -- in
Pressure 29.85 in
Visibility 10.0 miles
Clouds Clear
Heat Index 79 °F
Dew Point 54 °F
Humidity 42%
Rainfall 0.00 in
Snow Depth Not available.
5:38 AM 8:02 PM
New Moon, 2% visible
METAR KRIV 250758Z AUTO 31006KT 10SM CLR 21/15 A2989 RMK AO2 SLP106 T02100151 403440170
Pressure 29.85 in
Visibility 10.0 miles
Clouds Clear
Heat Index 79 °F
Dew Point 54 °F
Humidity 42%
Rainfall 0.00 in
Snow Depth Not available.
5:38 AM 8:02 PM
New Moon, 2% visible
METAR KRIV 250758Z AUTO 31006KT 10SM CLR 21/15 A2989 RMK AO2 SLP106 T02100151 403440170

Get Your Daily Forecast Email!

Thanks for signing up!

Be on the lookout for a verification email in your inbox.

You'll start receiving severe weather alerts in your inbox..

×

10-Day Weather Forecast

Almanac

Astronomy

Jun. 25, 2017 Rise Set
Actual Time
Civil Twilight
Nautical Twilight
Astronomical Twilight
Moon
Length of Visible Light
Length of Day
Tomorrow will be .
, % of the Moon is Illuminated

Today's Extremes

State Highs State Lows

Community

WunderPhotos

Category 6

Welcome to Category 6. This is the collective home for Weather Underground's featured writeups by Dr. Jeff Masters (right), Bob Henson (left), Chris Burt, and other regular contributors.

Nearby

Air Quality

  Air Quality AQ Index Pollutant
Not available.

Snow Depth

Station Depth Elevation

Earthquake Activity

City Distance Mag. Time & Date
Minimum magnitude displayed is 2.5.

Coastal Water Temperatures

Place Temperature

Stations

Nearby Weather Stations

Station Location Temp. Windchill Dew Point Humidity Wind Precip. Elev Updated Type
                   

Watches & Warnings

Excessive Heat Warning
Issued: 9:35 PM PDT Jun. 24, 2017 – National Weather Service

... Excessive heat warning remains in effect until 9 PM PDT
Monday...

* high temperatures... 113 to 120 through Sunday... then 109 to 115
Monday.

* Impacts... those working or spending time outdoors, the
elderly, children, and those unaccustomed to excessive heat
will be most susceptible to dangerous heat illness.

* Outlook... not as hot. High temperatures returning to near
average for Wednesday into next weekend.

Precautionary/preparedness actions...

Young children and pets should never be left unattended in
vehicles under any circumstances. This is especially true during
warm or hot weather when car interiors can reach lethal
temperatures in a matter of minutes.